sensor_id;sensor_type;location;lat;lon;timestamp;pressure;altitude;pressure_sealevel;temperature;humidity
48790;BME280;41718;51.980;5.734;2023-02-28T00:04:37;103042.69;;;-2.85;100.00
48790;BME280;41718;51.980;5.734;2023-02-28T00:09:59;103032.16;;;-2.81;100.00
48790;BME280;41718;51.980;5.734;2023-02-28T00:21:49;103048.78;;;-2.67;100.00
48790;BME280;41718;51.980;5.734;2023-02-28T00:27:29;103033.16;;;-2.63;100.00
48790;BME280;41718;51.980;5.734;2023-02-28T00:32:45;103036.84;;;-2.44;100.00
48790;BME280;41718;51.980;5.734;2023-02-28T00:38:17;103036.94;;;-2.26;100.00
48790;BME280;41718;51.980;5.734;2023-02-28T00:43:28;103031.13;;;-2.25;100.00
48790;BME280;41718;51.980;5.734;2023-02-28T00:48:52;103043.59;;;-2.02;100.00
48790;BME280;41718;51.980;5.734;2023-02-28T00:53:53;103031.59;;;-2.12;100.00
48790;BME280;41718;51.980;5.734;2023-02-28T00:59:43;103023.38;;;-2.18;100.00
48790;BME280;41718;51.980;5.734;2023-02-28T01:05:01;103030.75;;;-2.04;100.00
48790;BME280;41718;51.980;5.734;2023-02-28T01:10:15;103034.00;;;-2.05;100.00
48790;BME280;41718;51.980;5.734;2023-02-28T01:15:45;103037.50;;;-1.96;100.00
48790;BME280;41718;51.980;5.734;2023-02-28T01:21:10;103043.34;;;-1.79;100.00
48790;BME280;41718;51.980;5.734;2023-02-28T01:26:52;103027.38;;;-1.78;100.00
48790;BME280;41718;51.980;5.734;2023-02-28T01:31:54;103030.69;;;-1.71;100.00
48790;BME280;41718;51.980;5.734;2023-02-28T01:37:16;103042.34;;;-1.55;100.00
48790;BME280;41718;51.980;5.734;2023-02-28T01:42:24;103018.34;;;-1.50;100.00
48790;BME280;41718;51.980;5.734;2023-02-28T01:47:43;103028.19;;;-1.45;100.00
48790;BME280;41718;51.980;5.734;2023-02-28T02:05:06;103018.03;;;-1.27;100.00
48790;BME280;41718;51.980;5.734;2023-02-28T02:10:42;103003.25;;;-1.31;100.00
48790;BME280;41718;51.980;5.734;2023-02-28T02:16:39;103001.47;;;-1.33;100.00
48790;BME280;41718;51.980;5.734;2023-02-28T02:45:27;103016.84;;;-1.05;100.00
48790;BME280;41718;51.980;5.734;2023-02-28T02:51:34;103017.72;;;-1.04;100.00
48790;BME280;41718;51.980;5.734;2023-02-28T03:03:08;103012.19;;;-1.09;100.00
48790;BME280;41718;51.980;5.734;2023-02-28T03:08:39;103023.84;;;-1.02;100.00
48790;BME280;41718;51.980;5.734;2023-02-28T03:26:32;103016.38;;;-1.10;100.00
48790;BME280;41718;51.980;5.734;2023-02-28T03:32:30;103033.28;;;-1.01;100.00
48790;BME280;41718;51.980;5.734;2023-02-28T03:37:58;103032.06;;;-1.05;100.00
48790;BME280;41718;51.980;5.734;2023-02-28T03:43:44;103030.25;;;-0.97;100.00
48790;BME280;41718;51.980;5.734;2023-02-28T03:50:27;103031.03;;;-0.98;100.00
48790;BME280;41718;51.980;5.734;2023-02-28T04:02:12;103037.56;;;-0.66;100.00
48790;BME280;41718;51.980;5.734;2023-02-28T04:07:28;103033.72;;;-0.35;100.00
48790;BME280;41718;51.980;5.734;2023-02-28T04:12:54;103017.94;;;-0.49;100.00
48790;BME280;41718;51.980;5.734;2023-02-28T04:18:21;103027.66;;;-0.45;100.00
48790;BME280;41718;51.980;5.734;2023-02-28T04:23:31;103034.81;;;-0.50;100.00
48790;BME280;41718;51.980;5.734;2023-02-28T04:28:33;103016.28;;;-0.58;100.00
48790;BME280;41718;51.980;5.734;2023-02-28T04:33:47;103013.91;;;-0.56;100.00
48790;BME280;41718;51.980;5.734;2023-02-28T04:39:05;103011.81;;;-0.60;100.00
48790;BME280;41718;51.980;5.734;2023-02-28T04:51:05;103014.69;;;-0.66;100.00
48790;BME280;41718;51.980;5.734;2023-02-28T04:56:46;103012.13;;;-0.66;100.00
48790;BME280;41718;51.980;5.734;2023-02-28T05:02:09;103020.34;;;-0.60;100.00
48790;BME280;41718;51.980;5.734;2023-02-28T05:07:23;103013.03;;;-0.57;100.00
48790;BME280;41718;51.980;5.734;2023-02-28T05:12:37;103015.69;;;-0.55;100.00
48790;BME280;41718;51.980;5.734;2023-02-28T05:17:44;103022.25;;;-0.57;100.00
48790;BME280;41718;51.980;5.734;2023-02-28T05:22:46;103009.84;;;-0.54;100.00
48790;BME280;41718;51.980;5.734;2023-02-28T05:27:48;103026.63;;;-0.56;100.00
48790;BME280;41718;51.980;5.734;2023-02-28T05:32:58;103017.19;;;-0.57;100.00
48790;BME280;41718;51.980;5.734;2023-02-28T05:37:59;103012.72;;;-0.60;100.00
48790;BME280;41718;51.980;5.734;2023-02-28T05:43:34;103019.13;;;-0.55;100.00
48790;BME280;41718;51.980;5.734;2023-02-28T05:48:49;103032.28;;;-0.59;100.00
48790;BME280;41718;51.980;5.734;2023-02-28T05:53:53;103027.34;;;-0.57;100.00
48790;BME280;41718;51.980;5.734;2023-02-28T05:59:06;103016.47;;;-0.56;100.00
48790;BME280;41718;51.980;5.734;2023-02-28T06:10:53;103024.09;;;-0.65;100.00
48790;BME280;41718;51.980;5.734;2023-02-28T06:28:15;103025.13;;;-0.63;100.00
48790;BME280;41718;51.980;5.734;2023-02-28T06:33:25;103049.94;;;-0.60;100.00
48790;BME280;41718;51.980;5.734;2023-02-28T06:38:34;103036.22;;;-0.62;100.00
48790;BME280;41718;51.980;5.734;2023-02-28T06:43:50;103052.03;;;-0.56;100.00
48790;BME280;41718;51.980;5.734;2023-02-28T06:49:27;103056.94;;;-0.49;100.00
48790;BME280;41718;51.980;5.734;2023-02-28T07:06:44;103058.72;;;-0.39;100.00
48790;BME280;41718;51.980;5.734;2023-02-28T07:12:56;103061.84;;;-0.33;100.00
48790;BME280;41718;51.980;5.734;2023-02-28T07:18:18;103081.38;;;-0.23;100.00
48790;BME280;41718;51.980;5.734;2023-02-28T07:23:29;103076.28;;;-0.15;100.00
48790;BME280;41718;51.980;5.734;2023-02-28T07:35:12;103069.19;;;0.00;100.00
48790;BME280;41718;51.980;5.734;2023-02-28T07:41:12;103074.94;;;0.16;100.00
48790;BME280;41718;51.980;5.734;2023-02-28T07:46:44;103073.81;;;0.32;100.00
48790;BME280;41718;51.980;5.734;2023-02-28T07:52:37;103081.09;;;0.65;100.00
48790;BME280;41718;51.980;5.734;2023-02-28T07:58:08;103068.56;;;0.95;100.00
48790;BME280;41718;51.980;5.734;2023-02-28T08:03:59;103073.34;;;1.49;100.00
48790;BME280;41718;51.980;5.734;2023-02-28T08:09:36;103066.63;;;1.70;100.00
48790;BME280;41718;51.980;5.734;2023-02-28T08:20:46;103065.25;;;1.73;100.00
48790;BME280;41718;51.980;5.734;2023-02-28T08:26:08;103048.41;;;1.75;100.00
48790;BME280;41718;51.980;5.734;2023-02-28T08:31:24;103040.69;;;1.94;100.00
48790;BME280;41718;51.980;5.734;2023-02-28T08:36:55;103031.25;;;2.13;100.00
48790;BME280;41718;51.980;5.734;2023-02-28T08:42:10;103026.53;;;2.18;100.00
48790;BME280;41718;51.980;5.734;2023-02-28T08:47:16;103038.28;;;2.36;100.00
48790;BME280;41718;51.980;5.734;2023-02-28T08:52:32;103028.97;;;2.27;100.00
48790;BME280;41718;51.980;5.734;2023-02-28T08:57:36;103024.41;;;2.33;100.00
48790;BME280;41718;51.980;5.734;2023-02-28T09:02:41;103021.69;;;2.21;100.00
48790;BME280;41718;51.980;5.734;2023-02-28T09:07:52;103027.72;;;2.22;100.00
48790;BME280;41718;51.980;5.734;2023-02-28T09:13:11;103025.41;;;2.35;100.00
48790;BME280;41718;51.980;5.734;2023-02-28T09:18:17;103020.41;;;2.26;100.00
48790;BME280;41718;51.980;5.734;2023-02-28T09:23:33;103033.97;;;2.35;100.00
48790;BME280;41718;51.980;5.734;2023-02-28T09:28:35;103023.75;;;2.46;100.00
48790;BME280;41718;51.980;5.734;2023-02-28T09:33:39;103034.59;;;2.43;100.00
48790;BME280;41718;51.980;5.734;2023-02-28T09:38:42;103032.75;;;2.83;100.00
48790;BME280;41718;51.980;5.734;2023-02-28T09:43:53;103029.78;;;2.99;100.00
48790;BME280;41718;51.980;5.734;2023-02-28T09:49:37;103018.69;;;2.78;100.00
48790;BME280;41718;51.980;5.734;2023-02-28T09:55:36;103011.91;;;2.88;99.49
48790;BME280;41718;51.980;5.734;2023-02-28T10:06:52;103017.97;;;2.69;96.92
48790;BME280;41718;51.980;5.734;2023-02-28T10:12:09;103013.19;;;2.83;96.97
48790;BME280;41718;51.980;5.734;2023-02-28T10:17:51;103004.78;;;3.16;94.99
48790;BME280;41718;51.980;5.734;2023-02-28T10:23:42;103008.50;;;3.52;95.64
48790;BME280;41718;51.980;5.734;2023-02-28T10:28:56;102997.13;;;3.16;95.94
48790;BME280;41718;51.980;5.734;2023-02-28T10:34:17;103002.28;;;3.38;96.44
48790;BME280;41718;51.980;5.734;2023-02-28T10:39:50;102991.63;;;3.12;95.85
48790;BME280;41718;51.980;5.734;2023-02-28T10:45:17;102994.72;;;3.84;94.05
48790;BME280;41718;51.980;5.734;2023-02-28T10:50:44;102989.84;;;3.87;90.94
48790;BME280;41718;51.980;5.734;2023-02-28T11:01:14;102972.13;;;5.66;88.47
48790;BME280;41718;51.980;5.734;2023-02-28T11:06:30;102962.22;;;5.34;84.98
48790;BME280;41718;51.980;5.734;2023-02-28T11:11:46;102951.03;;;6.20;82.06
48790;BME280;41718;51.980;5.734;2023-02-28T11:17:29;102946.63;;;5.80;82.89
48790;BME280;41718;51.980;5.734;2023-02-28T11:22:33;102944.03;;;6.30;79.20
48790;BME280;41718;51.980;5.734;2023-02-28T11:32:53;102942.56;;;6.74;78.80
48790;BME280;41718;51.980;5.734;2023-02-28T11:38:19;102935.13;;;6.91;77.76
48790;BME280;41718;51.980;5.734;2023-02-28T12:26:53;102906.84;;;6.38;71.85
48790;BME280;41718;51.980;5.734;2023-02-28T12:50:12;102886.66;;;6.18;72.13
48790;BME280;41718;51.980;5.734;2023-02-28T12:56:03;102879.03;;;5.93;72.77
48790;BME280;41718;51.980;5.734;2023-02-28T13:13:31;102862.44;;;5.76;74.45
48790;BME280;41718;51.980;5.734;2023-02-28T13:19:45;102849.03;;;5.80;73.45
48790;BME280;41718;51.980;5.734;2023-02-28T13:42:47;102844.03;;;5.95;72.32
48790;BME280;41718;51.980;5.734;2023-02-28T13:48:34;102834.41;;;5.41;71.77
48790;BME280;41718;51.980;5.734;2023-02-28T14:07:11;102832.72;;;5.42;73.25
48790;BME280;41718;51.980;5.734;2023-02-28T14:13:03;102836.41;;;5.45;73.05
48790;BME280;41718;51.980;5.734;2023-02-28T14:37:46;102823.97;;;5.26;74.50
48790;BME280;41718;51.980;5.734;2023-02-28T14:43:27;102820.84;;;5.05;74.07
48790;BME280;41718;51.980;5.734;2023-02-28T14:49:04;102807.69;;;5.26;75.61
48790;BME280;41718;51.980;5.734;2023-02-28T14:54:29;102803.63;;;5.16;74.70
48790;BME280;41718;51.980;5.734;2023-02-28T15:24:16;102813.63;;;5.00;74.88
48790;BME280;41718;51.980;5.734;2023-02-28T15:30:19;102806.97;;;4.90;76.67
48790;BME280;41718;51.980;5.734;2023-02-28T15:36:18;102824.22;;;4.93;76.20
48790;BME280;41718;51.980;5.734;2023-02-28T15:47:32;102816.09;;;4.87;77.79
48790;BME280;41718;51.980;5.734;2023-02-28T15:53:13;102804.41;;;4.90;77.34
48790;BME280;41718;51.980;5.734;2023-02-28T16:05:31;102804.47;;;4.67;76.66
48790;BME280;41718;51.980;5.734;2023-02-28T16:10:48;102797.22;;;4.61;75.94
48790;BME280;41718;51.980;5.734;2023-02-28T16:16:21;102807.72;;;4.52;77.40
48790;BME280;41718;51.980;5.734;2023-02-28T16:22:00;102820.53;;;4.52;78.78
48790;BME280;41718;51.980;5.734;2023-02-28T16:27:50;102814.06;;;4.46;79.13
48790;BME280;41718;51.980;5.734;2023-02-28T16:33:50;102822.31;;;4.30;80.59
48790;BME280;41718;51.980;5.734;2023-02-28T16:39:06;102826.91;;;4.11;83.39
48790;BME280;41718;51.980;5.734;2023-02-28T16:44:34;102821.25;;;4.03;84.06
48790;BME280;41718;51.980;5.734;2023-02-28T16:49:44;102829.03;;;4.05;83.86
48790;BME280;41718;51.980;5.734;2023-02-28T16:54:57;102841.38;;;3.98;85.14
48790;BME280;41718;51.980;5.734;2023-02-28T17:01:16;102844.56;;;3.84;86.08
48790;BME280;41718;51.980;5.734;2023-02-28T17:18:58;102868.06;;;3.23;91.22
48790;BME280;41718;51.980;5.734;2023-02-28T17:24:10;102886.72;;;3.00;92.96
48790;BME280;41718;51.980;5.734;2023-02-28T17:29:30;102891.22;;;2.71;95.33
48790;BME280;41718;51.980;5.734;2023-02-28T17:34:41;102893.88;;;2.72;95.46
48790;BME280;41718;51.980;5.734;2023-02-28T17:39:46;102895.13;;;2.55;96.54
48790;BME280;41718;51.980;5.734;2023-02-28T17:44:49;102900.38;;;2.36;97.95
48790;BME280;41718;51.980;5.734;2023-02-28T17:49:53;102930.19;;;1.95;100.00
48790;BME280;41718;51.980;5.734;2023-02-28T17:54:58;102928.50;;;1.75;100.00
48790;BME280;41718;51.980;5.734;2023-02-28T18:00:06;102922.88;;;1.69;100.00
48790;BME280;41718;51.980;5.734;2023-02-28T18:10:53;102931.44;;;1.10;100.00
48790;BME280;41718;51.980;5.734;2023-02-28T18:16:09;102923.41;;;0.76;100.00
48790;BME280;41718;51.980;5.734;2023-02-28T18:21:22;102934.69;;;0.70;100.00
48790;BME280;41718;51.980;5.734;2023-02-28T18:26:40;102949.50;;;0.55;100.00
48790;BME280;41718;51.980;5.734;2023-02-28T18:31:55;102944.81;;;0.22;100.00
48790;BME280;41718;51.980;5.734;2023-02-28T18:37:10;102938.50;;;0.08;100.00
48790;BME280;41718;51.980;5.734;2023-02-28T18:42:21;102946.72;;;-0.13;100.00
48790;BME280;41718;51.980;5.734;2023-02-28T18:47:42;102957.53;;;-0.24;100.00
48790;BME280;41718;51.980;5.734;2023-02-28T18:52:57;102963.16;;;-0.46;100.00
48790;BME280;41718;51.980;5.734;2023-02-28T18:58:20;102953.25;;;-0.62;100.00
48790;BME280;41718;51.980;5.734;2023-02-28T19:03:40;102955.03;;;-0.69;100.00
48790;BME280;41718;51.980;5.734;2023-02-28T19:08:51;102952.53;;;-0.78;100.00
48790;BME280;41718;51.980;5.734;2023-02-28T19:14:04;102967.97;;;-0.94;100.00
48790;BME280;41718;51.980;5.734;2023-02-28T19:19:41;102968.44;;;-1.15;100.00
48790;BME280;41718;51.980;5.734;2023-02-28T19:24:49;102985.03;;;-1.10;100.00
48790;BME280;41718;51.980;5.734;2023-02-28T19:29:54;102981.44;;;-1.21;100.00
48790;BME280;41718;51.980;5.734;2023-02-28T19:35:02;102976.38;;;-1.38;100.00
48790;BME280;41718;51.980;5.734;2023-02-28T19:40:06;102975.50;;;-1.47;100.00
48790;BME280;41718;51.980;5.734;2023-02-28T19:45:14;102976.09;;;-1.58;100.00
48790;BME280;41718;51.980;5.734;2023-02-28T19:50:21;102988.31;;;-1.63;100.00
48790;BME280;41718;51.980;5.734;2023-02-28T19:55:34;102985.91;;;-1.70;100.00
48790;BME280;41718;51.980;5.734;2023-02-28T20:00:40;102984.41;;;-1.85;100.00
48790;BME280;41718;51.980;5.734;2023-02-28T20:06:08;102994.53;;;-2.03;100.00
48790;BME280;41718;51.980;5.734;2023-02-28T20:11:42;103014.00;;;-2.10;100.00
48790;BME280;41718;51.980;5.734;2023-02-28T20:16:58;103011.19;;;-2.05;100.00
48790;BME280;41718;51.980;5.734;2023-02-28T20:22:17;103017.56;;;-2.17;100.00
48790;BME280;41718;51.980;5.734;2023-02-28T20:27:34;103007.84;;;-2.30;100.00
48790;BME280;41718;51.980;5.734;2023-02-28T20:32:44;103010.03;;;-2.42;100.00
48790;BME280;41718;51.980;5.734;2023-02-28T20:37:52;102995.56;;;-2.43;100.00
48790;BME280;41718;51.980;5.734;2023-02-28T20:42:57;103009.59;;;-2.37;100.00
48790;BME280;41718;51.980;5.734;2023-02-28T20:48:14;103003.88;;;-2.52;100.00
48790;BME280;41718;51.980;5.734;2023-02-28T20:53:22;103007.88;;;-2.54;100.00
48790;BME280;41718;51.980;5.734;2023-02-28T20:58:36;103016.84;;;-2.49;100.00
48790;BME280;41718;51.980;5.734;2023-02-28T21:03:47;103021.91;;;-2.74;100.00
48790;BME280;41718;51.980;5.734;2023-02-28T21:08:51;103033.84;;;-2.73;100.00
48790;BME280;41718;51.980;5.734;2023-02-28T21:14:21;103028.09;;;-2.87;100.00
48790;BME280;41718;51.980;5.734;2023-02-28T21:19:30;103025.09;;;-2.92;100.00
48790;BME280;41718;51.980;5.734;2023-02-28T21:24:32;103025.69;;;-2.95;100.00
48790;BME280;41718;51.980;5.734;2023-02-28T21:29:33;103029.75;;;-3.04;100.00
48790;BME280;41718;51.980;5.734;2023-02-28T21:34:38;103032.06;;;-3.14;100.00
48790;BME280;41718;51.980;5.734;2023-02-28T21:39:49;103033.41;;;-3.17;100.00
48790;BME280;41718;51.980;5.734;2023-02-28T21:44:53;103031.41;;;-3.20;100.00
48790;BME280;41718;51.980;5.734;2023-02-28T21:49:58;103022.94;;;-3.21;100.00
48790;BME280;41718;51.980;5.734;2023-02-28T21:55:12;103033.56;;;-3.16;100.00
48790;BME280;41718;51.980;5.734;2023-02-28T22:00:21;103027.66;;;-3.24;100.00
48790;BME280;41718;51.980;5.734;2023-02-28T22:05:24;103037.97;;;-3.22;100.00
48790;BME280;41718;51.980;5.734;2023-02-28T22:10:29;103039.66;;;-3.30;100.00
48790;BME280;41718;51.980;5.734;2023-02-28T22:15:36;103048.34;;;-3.28;100.00
48790;BME280;41718;51.980;5.734;2023-02-28T22:20:43;103047.75;;;-3.25;100.00
48790;BME280;41718;51.980;5.734;2023-02-28T22:25:50;103047.16;;;-3.07;100.00
48790;BME280;41718;51.980;5.734;2023-02-28T22:36:29;103059.19;;;-3.29;100.00
48790;BME280;41718;51.980;5.734;2023-02-28T22:41:31;103062.53;;;-3.37;100.00
48790;BME280;41718;51.980;5.734;2023-02-28T22:46:33;103051.75;;;-3.43;100.00
48790;BME280;41718;51.980;5.734;2023-02-28T22:51:36;103046.06;;;-3.49;100.00
48790;BME280;41718;51.980;5.734;2023-02-28T22:56:38;103038.56;;;-3.56;100.00
48790;BME280;41718;51.980;5.734;2023-02-28T23:01:40;103037.41;;;-3.67;100.00
48790;BME280;41718;51.980;5.734;2023-02-28T23:06:46;103040.47;;;-3.69;100.00
48790;BME280;41718;51.980;5.734;2023-02-28T23:11:49;103041.38;;;-3.69;100.00
48790;BME280;41718;51.980;5.734;2023-02-28T23:16:54;103044.09;;;-3.67;100.00
48790;BME280;41718;51.980;5.734;2023-02-28T23:21:59;103043.28;;;-3.59;100.00
48790;BME280;41718;51.980;5.734;2023-02-28T23:27:03;103048.41;;;-3.66;100.00
48790;BME280;41718;51.980;5.734;2023-02-28T23:32:05;103058.22;;;-3.92;100.00
48790;BME280;41718;51.980;5.734;2023-02-28T23:37:10;103060.09;;;-3.98;100.00
48790;BME280;41718;51.980;5.734;2023-02-28T23:42:14;103060.00;;;-4.07;100.00
48790;BME280;41718;51.980;5.734;2023-02-28T23:47:19;103063.31;;;-4.15;100.00
48790;BME280;41718;51.980;5.734;2023-02-28T23:52:20;103066.72;;;-4.15;100.00
48790;BME280;41718;51.980;5.734;2023-02-28T23:57:22;103071.47;;;-4.18;100.00
